createdAt,value
2024-01-05T00:00:58.662Z,995.138
2024-01-05T00:05:57.936Z,995.291
2024-01-05T00:10:55.201Z,995.365
2024-01-05T00:15:56.327Z,995.25
2024-01-05T00:20:54.252Z,995.374
2024-01-05T00:25:58.361Z,995.302
2024-01-05T00:30:57.351Z,995.241
2024-01-05T00:35:54.504Z,995.28
2024-01-05T00:40:56.490Z,995.394
2024-01-05T00:45:59.322Z,995.52
2024-01-05T00:50:56.265Z,995.602
2024-01-05T00:55:53.660Z,995.683
2024-01-05T01:00:59.444Z,995.894
2024-01-05T01:05:50.565Z,995.818
2024-01-05T01:10:53.350Z,995.782
2024-01-05T01:15:54.165Z,995.685
2024-01-05T01:20:52.455Z,995.91
2024-01-05T01:25:50.364Z,995.846
2024-01-05T01:30:49.164Z,995.542
2024-01-05T01:35:49.923Z,995.779
2024-01-05T01:40:47.990Z,995.775
2024-01-05T01:45:50.565Z,995.612
2024-01-05T01:50:48.801Z,995.665
2024-01-05T01:55:47.922Z,995.579
2024-01-05T02:00:50.647Z,995.494
2024-01-05T02:05:51.116Z,995.636
2024-01-05T02:10:49.397Z,995.682
2024-01-05T02:15:48.622Z,995.669
2024-01-05T02:20:51.216Z,995.632
2024-01-05T02:25:48.880Z,995.765
2024-01-05T02:30:49.321Z,995.558
2024-01-05T02:35:49.085Z,995.496
2024-01-05T02:40:48.792Z,995.47
2024-01-05T02:45:50.343Z,995.292
2024-01-05T02:50:51.932Z,995.388
2024-01-05T02:55:52.713Z,995.356
2024-01-05T03:00:50.625Z,995.135
2024-01-05T03:05:51.706Z,995.125
2024-01-05T03:10:48.702Z,995.143
2024-01-05T03:15:51.664Z,995.2
2024-01-05T03:20:50.340Z,995.029
2024-01-05T03:25:49.084Z,995.094
2024-01-05T03:30:52.827Z,995.075
2024-01-05T03:35:54.645Z,995.039
2024-01-05T03:40:57.343Z,994.888
2024-01-05T03:45:56.673Z,995.048
2024-01-05T03:50:59.109Z,994.952
2024-01-05T03:55:56.591Z,995.03
2024-01-05T04:00:58.712Z,995.206
2024-01-05T04:05:54.417Z,994.992
2024-01-05T04:10:50.015Z,995.103
2024-01-05T04:15:51.092Z,995.225
2024-01-05T04:20:49.452Z,994.822
2024-01-05T04:25:50.357Z,994.852
2024-01-05T04:30:50.426Z,994.974
2024-01-05T04:35:49.846Z,994.711
2024-01-05T04:40:52.196Z,994.834
2024-01-05T04:45:50.116Z,994.838
2024-01-05T04:50:52.238Z,994.845
2024-01-05T04:55:49.618Z,994.827
2024-01-05T05:00:48.845Z,994.841
2024-01-05T05:05:50.897Z,994.833
2024-01-05T05:10:49.250Z,994.811
2024-01-05T05:15:51.229Z,994.777
2024-01-05T05:20:49.624Z,994.561
2024-01-05T05:25:51.231Z,995.02
2024-01-05T05:30:50.773Z,995.068
2024-01-05T05:35:52.633Z,995.265
2024-01-05T05:40:49.493Z,995.189
2024-01-05T05:45:49.408Z,995.239
2024-01-05T05:50:50.413Z,995.268
2024-01-05T05:55:50.414Z,995.269
2024-01-05T06:00:54.860Z,995.398
2024-01-05T06:05:49.317Z,995.397
2024-01-05T06:10:49.659Z,995.396
2024-01-05T06:15:51.178Z,995.406
2024-01-05T06:20:51.113Z,995.081
2024-01-05T06:25:53.339Z,995.018
2024-01-05T06:30:54.729Z,994.948
2024-01-05T06:35:54.360Z,995.093
2024-01-05T06:40:52.882Z,994.981
2024-01-05T06:46:32.679Z,995.006
2024-01-05T06:50:51.512Z,994.882
2024-01-05T06:55:51.789Z,994.849
2024-01-05T07:00:52.716Z,994.947
2024-01-05T07:05:53.337Z,994.938
2024-01-05T07:10:54.472Z,994.887
2024-01-05T07:15:53.733Z,994.608
2024-01-05T07:20:53.149Z,994.586
2024-01-05T07:25:54.636Z,994.723
2024-01-05T07:30:55.125Z,994.816
2024-01-05T07:35:54.551Z,994.767
2024-01-05T07:40:57.405Z,994.763
2024-01-05T07:45:56.203Z,994.876
2024-01-05T07:50:54.652Z,995.014
2024-01-05T07:55:54.474Z,994.631
2024-01-05T08:00:59.007Z,994.705
2024-01-05T08:05:53.863Z,994.641
2024-01-05T08:10:57.679Z,994.79
2024-01-05T08:15:54.102Z,994.783
2024-01-05T08:20:55.438Z,994.858
2024-01-05T08:25:55.981Z,994.735
2024-01-05T08:30:57.535Z,994.715
2024-01-05T08:35:56.605Z,994.73
2024-01-05T08:40:56.240Z,994.69
2024-01-05T08:45:55.199Z,994.777
2024-01-05T08:50:55.901Z,994.906
2024-01-05T08:55:53.094Z,994.848
2024-01-05T09:00:58.537Z,994.963
2024-01-05T09:05:55.387Z,994.792
2024-01-05T09:10:53.895Z,994.899
2024-01-05T09:15:53.938Z,994.742
2024-01-05T09:20:56.440Z,994.873
2024-01-05T09:25:55.243Z,994.947
2024-01-05T09:30:56.538Z,994.928
2024-01-05T09:35:55.264Z,994.705
2024-01-05T09:40:56.666Z,994.639
2024-01-05T09:45:54.940Z,994.875
2024-01-05T09:50:54.482Z,994.787
2024-01-05T09:55:56.057Z,994.576
2024-01-05T10:00:55.625Z,994.66
2024-01-05T10:05:55.030Z,994.501
2024-01-05T10:10:54.571Z,994.386
2024-01-05T10:15:54.032Z,994.39
2024-01-05T10:20:54.632Z,994.289
2024-01-05T10:25:55.359Z,994.269
2024-01-05T10:30:57.249Z,993.983
2024-01-05T10:35:53.487Z,994.047
2024-01-05T10:40:53.297Z,993.92
2024-01-05T10:45:56.769Z,994.066
2024-01-05T10:50:51.987Z,993.925
2024-01-05T10:55:53.901Z,994.001
2024-01-05T11:00:54.611Z,993.869
2024-01-05T11:05:53.360Z,993.625
2024-01-05T11:10:54.216Z,993.675
2024-01-05T11:15:54.216Z,993.478
2024-01-05T11:20:56.745Z,993.45
2024-01-05T11:25:56.014Z,993.275
2024-01-05T11:30:54.597Z,993.24
2024-01-05T11:35:52.754Z,993.013
2024-01-05T11:40:53.730Z,993.109
2024-01-05T11:45:55.804Z,993.022
2024-01-05T11:50:52.045Z,992.974
2024-01-05T11:55:55.145Z,992.646
2024-01-05T12:00:54.015Z,992.72
2024-01-05T12:10:55.060Z,992.733
2024-01-05T12:20:52.849Z,992.559
2024-01-05T12:25:53.082Z,992.548
2024-01-05T12:30:53.618Z,992.617
2024-01-05T12:35:55.738Z,992.517
2024-01-05T12:40:56.519Z,992.27
2024-01-05T12:45:54.344Z,992.218
2024-01-05T12:50:53.126Z,992.472
2024-01-05T12:55:52.912Z,992.171
2024-01-05T13:00:54.702Z,992.154
2024-01-05T13:05:54.099Z,992.179
2024-01-05T13:10:52.474Z,992.172
2024-01-05T13:15:53.333Z,991.954
2024-01-05T13:20:53.905Z,991.891
2024-01-05T13:25:54.980Z,991.966
2024-01-05T13:30:58.474Z,991.917
2024-01-05T13:35:55.426Z,991.909
2024-01-05T13:40:53.057Z,991.996
2024-01-05T13:45:58.119Z,992.033
2024-01-05T13:50:53.497Z,991.996
2024-01-05T13:55:59.060Z,991.736
2024-01-05T14:00:56.977Z,991.705
2024-01-05T14:05:54.475Z,991.926
2024-01-05T14:10:55.011Z,991.619
2024-01-05T14:15:53.467Z,991.518
2024-01-05T14:20:56.802Z,991.531
2024-01-05T14:26:00.134Z,991.631
2024-01-05T14:30:54.717Z,991.725
2024-01-05T14:35:58.310Z,991.678
2024-01-05T14:40:57.858Z,991.688
2024-01-05T14:45:57.530Z,991.65
2024-01-05T14:50:51.875Z,991.532
2024-01-05T14:55:51.973Z,991.66
2024-01-05T15:00:52.432Z,991.377
2024-01-05T15:05:51.686Z,991.224
2024-01-05T15:10:52.577Z,991.261
2024-01-05T15:15:51.649Z,991.169
2024-01-05T15:20:52.523Z,991.381
2024-01-05T15:25:50.459Z,991.212
2024-01-05T15:30:52.138Z,991.324
2024-01-05T15:35:51.260Z,991.284
2024-01-05T15:40:50.702Z,991.348
2024-01-05T15:45:54.606Z,991.408
2024-01-05T15:50:49.981Z,991.441
2024-01-05T15:55:57.656Z,991.182
2024-01-05T16:00:55.101Z,991.127
2024-01-05T16:05:51.083Z,991.209
2024-01-05T16:10:53.302Z,991.158
2024-01-05T16:15:50.991Z,991.067
2024-01-05T16:20:49.147Z,991.124
2024-01-05T16:25:48.296Z,991.026
2024-01-05T16:30:50.878Z,991.177
2024-01-05T16:35:50.140Z,991.439
2024-01-05T16:40:51.228Z,991.302
2024-01-05T16:45:50.116Z,991.336
2024-01-05T16:50:49.409Z,991.397
2024-01-05T16:55:52.160Z,991.604
2024-01-05T17:00:52.161Z,991.626
2024-01-05T17:05:53.574Z,991.505
2024-01-05T17:10:52.804Z,991.33
2024-01-05T17:15:50.360Z,991.287
2024-01-05T17:20:50.367Z,991.366
2024-01-05T17:25:49.720Z,991.502
2024-01-05T17:30:49.029Z,991.531
2024-01-05T17:35:49.180Z,991.448
2024-01-05T17:40:48.419Z,991.704
2024-01-05T17:45:50.463Z,991.753
2024-01-05T17:50:50.895Z,991.686
2024-01-05T17:55:52.823Z,991.621
2024-01-05T18:00:55.208Z,991.729
2024-01-05T18:05:49.062Z,991.627
2024-01-05T18:10:50.594Z,991.733
2024-01-05T18:15:49.437Z,991.664
2024-01-05T18:20:53.095Z,991.651
2024-01-05T18:25:51.756Z,991.767
2024-01-05T18:30:53.361Z,991.882
2024-01-05T18:35:49.593Z,991.841
2024-01-05T18:40:49.881Z,991.747
2024-01-05T18:45:49.747Z,991.675
2024-01-05T18:50:48.510Z,991.531
2024-01-05T18:55:56.693Z,991.629
2024-01-05T19:00:49.286Z,991.782
2024-01-05T19:05:50.615Z,991.672
2024-01-05T19:10:51.644Z,991.578
2024-01-05T19:15:50.973Z,991.414
2024-01-05T19:20:50.374Z,991.618
2024-01-05T19:25:50.835Z,991.683
2024-01-05T19:30:51.280Z,991.537
2024-01-05T19:35:51.990Z,991.62
2024-01-05T19:40:49.811Z,991.65
2024-01-05T19:45:53.934Z,991.588
2024-01-05T19:50:53.202Z,991.75
2024-01-05T19:55:47.329Z,991.651
2024-01-05T20:00:48.460Z,991.815
2024-01-05T20:05:48.311Z,991.842
2024-01-05T20:10:47.840Z,991.724
2024-01-05T20:15:49.187Z,991.5
2024-01-05T20:20:47.652Z,991.573
2024-01-05T20:25:51.411Z,991.503
2024-01-05T20:30:49.559Z,991.607
2024-01-05T20:35:47.836Z,991.565
2024-01-05T20:40:46.168Z,991.529
2024-01-05T20:45:46.404Z,991.281
2024-01-05T20:50:50.016Z,991.35
2024-01-05T20:55:46.377Z,991.32
2024-01-05T21:00:46.737Z,991.323
2024-01-05T21:05:48.088Z,991.32
2024-01-05T21:10:47.484Z,991.236
2024-01-05T21:15:50.162Z,991.257
2024-01-05T21:20:47.611Z,991.171
2024-01-05T21:25:48.018Z,991.295
2024-01-05T21:30:48.044Z,991.465
2024-01-05T21:35:47.244Z,991.469
2024-01-05T21:40:45.455Z,991.335
2024-01-05T21:45:47.487Z,991.31
2024-01-05T21:50:48.483Z,991.31
2024-01-05T21:55:50.250Z,991.382
2024-01-05T22:00:47.436Z,991.184
2024-01-05T22:05:45.601Z,991.266
2024-01-05T22:10:47.793Z,991.084
2024-01-05T22:15:45.618Z,991.207
2024-01-05T22:20:48.734Z,991.021
2024-01-05T22:25:47.649Z,991.231
2024-01-05T22:30:51.030Z,991.004
2024-01-05T22:35:45.651Z,990.772
2024-01-05T22:40:47.588Z,990.991
2024-01-05T22:45:46.747Z,990.962
2024-01-05T22:50:46.911Z,990.758
2024-01-05T22:55:51.943Z,990.687
2024-01-05T23:00:51.616Z,990.87
2024-01-05T23:05:48.536Z,990.878
2024-01-05T23:10:46.758Z,990.946
2024-01-05T23:15:49.326Z,990.761
2024-01-05T23:20:47.073Z,990.848
2024-01-05T23:25:45.824Z,990.797
2024-01-05T23:30:47.992Z,990.875
2024-01-05T23:35:46.227Z,990.627
2024-01-05T23:40:48.848Z,990.757
2024-01-05T23:45:46.182Z,990.683
2024-01-05T23:50:48.735Z,990.673
2024-01-05T23:55:48.061Z,990.676
